sensor_id;sensor_type;location;lat;lon;timestamp;P1;durP1;ratioP1;P2;durP2;ratioP2
42864;SDS011;28511;42.680;23.252;2023-03-30T00:01:40;2.40;;;1.20;;
42864;SDS011;28511;42.680;23.252;2023-03-30T00:04:05;1.05;;;0.60;;
42864;SDS011;28511;42.680;23.252;2023-03-30T00:06:30;1.55;;;0.88;;
42864;SDS011;28511;42.680;23.252;2023-03-30T00:08:56;1.20;;;0.73;;
42864;SDS011;28511;42.680;23.252;2023-03-30T00:11:21;1.05;;;0.77;;
42864;SDS011;28511;42.680;23.252;2023-03-30T00:13:47;1.63;;;1.52;;
42864;SDS011;28511;42.680;23.252;2023-03-30T00:16:12;2.95;;;0.82;;
42864;SDS011;28511;42.680;23.252;2023-03-30T00:18:38;0.95;;;0.85;;
42864;SDS011;28511;42.680;23.252;2023-03-30T00:21:04;0.88;;;0.80;;
42864;SDS011;28511;42.680;23.252;2023-03-30T00:23:29;3.78;;;0.80;;
42864;SDS011;28511;42.680;23.252;2023-03-30T00:25:55;1.25;;;0.57;;
42864;SDS011;28511;42.680;23.252;2023-03-30T00:28:20;1.55;;;0.52;;
42864;SDS011;28511;42.680;23.252;2023-03-30T00:30:46;2.55;;;1.63;;
42864;SDS011;28511;42.680;23.252;2023-03-30T00:33:11;1.70;;;0.50;;
42864;SDS011;28511;42.680;23.252;2023-03-30T00:35:37;1.40;;;0.80;;
42864;SDS011;28511;42.680;23.252;2023-03-30T00:38:02;0.70;;;0.68;;
42864;SDS011;28511;42.680;23.252;2023-03-30T00:40:28;2.47;;;1.50;;
42864;SDS011;28511;42.680;23.252;2023-03-30T00:43:00;1.00;;;0.70;;
42864;SDS011;28511;42.680;23.252;2023-03-30T00:45:26;1.80;;;1.08;;
42864;SDS011;28511;42.680;23.252;2023-03-30T00:50:37;0.93;;;0.80;;
42864;SDS011;28511;42.680;23.252;2023-03-30T00:53:15;1.88;;;1.00;;
42864;SDS011;28511;42.680;23.252;2023-03-30T00:55:41;1.85;;;1.15;;
42864;SDS011;28511;42.680;23.252;2023-03-30T00:58:08;3.40;;;1.63;;
42864;SDS011;28511;42.680;23.252;2023-03-30T01:00:37;2.75;;;1.77;;
42864;SDS011;28511;42.680;23.252;2023-03-30T01:03:04;0.75;;;0.55;;
42864;SDS011;28511;42.680;23.252;2023-03-30T01:05:29;1.60;;;1.08;;
42864;SDS011;28511;42.680;23.252;2023-03-30T01:07:55;0.60;;;0.60;;
42864;SDS011;28511;42.680;23.252;2023-03-30T01:10:22;4.00;;;1.35;;
42864;SDS011;28511;42.680;23.252;2023-03-30T01:12:47;3.42;;;0.82;;
42864;SDS011;28511;42.680;23.252;2023-03-30T01:15:13;1.02;;;1.00;;
42864;SDS011;28511;42.680;23.252;2023-03-30T01:28:23;7.10;;;0.95;;
42864;SDS011;28511;42.680;23.252;2023-03-30T01:33:38;1.05;;;0.63;;
42864;SDS011;28511;42.680;23.252;2023-03-30T01:41:21;1.73;;;1.00;;
42864;SDS011;28511;42.680;23.252;2023-03-30T01:46:36;2.78;;;1.13;;
42864;SDS011;28511;42.680;23.252;2023-03-30T02:00:13;0.83;;;0.70;;
42864;SDS011;28511;42.680;23.252;2023-03-30T02:02:40;1.17;;;0.77;;
42864;SDS011;28511;42.680;23.252;2023-03-30T02:05:07;1.02;;;0.95;;
42864;SDS011;28511;42.680;23.252;2023-03-30T02:07:34;1.92;;;1.00;;
42864;SDS011;28511;42.680;23.252;2023-03-30T02:10:02;0.60;;;0.60;;
42864;SDS011;28511;42.680;23.252;2023-03-30T02:12:28;0.80;;;0.80;;
42864;SDS011;28511;42.680;23.252;2023-03-30T02:14:59;1.08;;;0.85;;
42864;SDS011;28511;42.680;23.252;2023-03-30T02:17:26;1.75;;;1.27;;
42864;SDS011;28511;42.680;23.252;2023-03-30T02:19:52;5.50;;;1.67;;
42864;SDS011;28511;42.680;23.252;2023-03-30T02:22:20;1.13;;;0.85;;
42864;SDS011;28511;42.680;23.252;2023-03-30T02:24:46;1.10;;;1.00;;
42864;SDS011;28511;42.680;23.252;2023-03-30T02:27:12;0.90;;;0.90;;
42864;SDS011;28511;42.680;23.252;2023-03-30T02:29:38;2.15;;;0.90;;
42864;SDS011;28511;42.680;23.252;2023-03-30T02:32:05;1.77;;;1.35;;
42864;SDS011;28511;42.680;23.252;2023-03-30T02:50:08;1.95;;;1.17;;
42864;SDS011;28511;42.680;23.252;2023-03-30T02:57:32;1.17;;;1.08;;
42864;SDS011;28511;42.680;23.252;2023-03-30T03:00:17;1.30;;;0.80;;
42864;SDS011;28511;42.680;23.252;2023-03-30T03:02:45;1.08;;;0.98;;
42864;SDS011;28511;42.680;23.252;2023-03-30T03:05:12;2.35;;;1.45;;
42864;SDS011;28511;42.680;23.252;2023-03-30T03:07:38;1.98;;;1.00;;
42864;SDS011;28511;42.680;23.252;2023-03-30T03:10:04;0.70;;;0.70;;
42864;SDS011;28511;42.680;23.252;2023-03-30T03:12:30;1.27;;;0.98;;
42864;SDS011;28511;42.680;23.252;2023-03-30T03:14:56;0.73;;;0.73;;
42864;SDS011;28511;42.680;23.252;2023-03-30T03:17:21;0.40;;;0.40;;
42864;SDS011;28511;42.680;23.252;2023-03-30T03:19:47;2.45;;;0.90;;
42864;SDS011;28511;42.680;23.252;2023-03-30T03:22:13;4.13;;;2.60;;
42864;SDS011;28511;42.680;23.252;2023-03-30T03:24:38;1.08;;;1.02;;
42864;SDS011;28511;42.680;23.252;2023-03-30T03:27:04;1.08;;;1.00;;
42864;SDS011;28511;42.680;23.252;2023-03-30T03:29:30;2.28;;;1.23;;
42864;SDS011;28511;42.680;23.252;2023-03-30T03:31:56;3.42;;;1.33;;
42864;SDS011;28511;42.680;23.252;2023-03-30T03:34:21;1.90;;;1.40;;
42864;SDS011;28511;42.680;23.252;2023-03-30T03:36:50;1.27;;;1.05;;
42864;SDS011;28511;42.680;23.252;2023-03-30T03:39:16;2.90;;;1.13;;
42864;SDS011;28511;42.680;23.252;2023-03-30T03:41:41;2.42;;;1.50;;
42864;SDS011;28511;42.680;23.252;2023-03-30T03:44:07;1.17;;;1.08;;
42864;SDS011;28511;42.680;23.252;2023-03-30T03:46:32;2.38;;;2.17;;
42864;SDS011;28511;42.680;23.252;2023-03-30T03:48:57;1.08;;;0.98;;
42864;SDS011;28511;42.680;23.252;2023-03-30T03:51:22;3.35;;;1.27;;
42864;SDS011;28511;42.680;23.252;2023-03-30T03:53:48;2.08;;;1.10;;
42864;SDS011;28511;42.680;23.252;2023-03-30T03:56:13;3.75;;;2.22;;
42864;SDS011;28511;42.680;23.252;2023-03-30T03:58:39;1.20;;;0.90;;
42864;SDS011;28511;42.680;23.252;2023-03-30T04:01:04;1.25;;;0.90;;
42864;SDS011;28511;42.680;23.252;2023-03-30T04:03:30;2.10;;;1.15;;
42864;SDS011;28511;42.680;23.252;2023-03-30T04:05:58;1.02;;;0.90;;
42864;SDS011;28511;42.680;23.252;2023-03-30T04:08:24;2.45;;;1.10;;
42864;SDS011;28511;42.680;23.252;2023-03-30T04:10:50;1.50;;;1.33;;
42864;SDS011;28511;42.680;23.252;2023-03-30T04:13:15;1.88;;;1.23;;
42864;SDS011;28511;42.680;23.252;2023-03-30T04:15:40;2.40;;;1.35;;
42864;SDS011;28511;42.680;23.252;2023-03-30T04:18:05;3.05;;;1.65;;
42864;SDS011;28511;42.680;23.252;2023-03-30T04:20:32;2.08;;;1.13;;
42864;SDS011;28511;42.680;23.252;2023-03-30T04:22:58;0.88;;;0.65;;
42864;SDS011;28511;42.680;23.252;2023-03-30T04:25:25;6.68;;;1.30;;
42864;SDS011;28511;42.680;23.252;2023-03-30T04:27:51;1.30;;;1.23;;
42864;SDS011;28511;42.680;23.252;2023-03-30T04:30:17;1.63;;;0.95;;
42864;SDS011;28511;42.680;23.252;2023-03-30T04:32:43;2.00;;;1.17;;
42864;SDS011;28511;42.680;23.252;2023-03-30T04:35:08;1.13;;;1.02;;
42864;SDS011;28511;42.680;23.252;2023-03-30T04:37:35;2.28;;;1.58;;
42864;SDS011;28511;42.680;23.252;2023-03-30T04:40:03;5.80;;;1.98;;
42864;SDS011;28511;42.680;23.252;2023-03-30T04:42:32;1.73;;;0.90;;
42864;SDS011;28511;42.680;23.252;2023-03-30T04:45:07;2.85;;;1.60;;
42864;SDS011;28511;42.680;23.252;2023-03-30T04:47:34;1.98;;;1.10;;
42864;SDS011;28511;42.680;23.252;2023-03-30T04:49:59;4.82;;;1.73;;
42864;SDS011;28511;42.680;23.252;2023-03-30T04:52:25;2.38;;;1.45;;
42864;SDS011;28511;42.680;23.252;2023-03-30T04:54:51;4.43;;;1.42;;
42864;SDS011;28511;42.680;23.252;2023-03-30T04:57:16;3.13;;;1.50;;
42864;SDS011;28511;42.680;23.252;2023-03-30T04:59:42;1.38;;;1.02;;
42864;SDS011;28511;42.680;23.252;2023-03-30T05:02:08;1.27;;;1.05;;
42864;SDS011;28511;42.680;23.252;2023-03-30T05:04:34;1.50;;;1.25;;
42864;SDS011;28511;42.680;23.252;2023-03-30T05:06:59;1.30;;;1.08;;
42864;SDS011;28511;42.680;23.252;2023-03-30T05:09:25;1.50;;;0.95;;
42864;SDS011;28511;42.680;23.252;2023-03-30T05:11:50;1.60;;;1.20;;
42864;SDS011;28511;42.680;23.252;2023-03-30T05:14:15;1.17;;;1.05;;
42864;SDS011;28511;42.680;23.252;2023-03-30T05:16:41;2.08;;;1.88;;
42864;SDS011;28511;42.680;23.252;2023-03-30T05:19:06;1.33;;;1.23;;
42864;SDS011;28511;42.680;23.252;2023-03-30T05:21:32;5.30;;;1.67;;
42864;SDS011;28511;42.680;23.252;2023-03-30T05:23:58;4.38;;;1.55;;
42864;SDS011;28511;42.680;23.252;2023-03-30T05:26:24;3.17;;;1.63;;
42864;SDS011;28511;42.680;23.252;2023-03-30T05:28:50;1.35;;;0.80;;
42864;SDS011;28511;42.680;23.252;2023-03-30T05:31:16;8.23;;;1.23;;
42864;SDS011;28511;42.680;23.252;2023-03-30T05:33:42;3.80;;;1.10;;
42864;SDS011;28511;42.680;23.252;2023-03-30T05:36:07;2.20;;;1.30;;
42864;SDS011;28511;42.680;23.252;2023-03-30T05:38:33;1.23;;;1.05;;
42864;SDS011;28511;42.680;23.252;2023-03-30T05:40:58;1.98;;;1.10;;
42864;SDS011;28511;42.680;23.252;2023-03-30T05:43:23;4.20;;;1.00;;
42864;SDS011;28511;42.680;23.252;2023-03-30T05:45:49;3.03;;;1.67;;
42864;SDS011;28511;42.680;23.252;2023-03-30T05:48:14;1.38;;;0.82;;
42864;SDS011;28511;42.680;23.252;2023-03-30T05:50:39;4.30;;;1.10;;
42864;SDS011;28511;42.680;23.252;2023-03-30T05:53:06;1.20;;;1.10;;
42864;SDS011;28511;42.680;23.252;2023-03-30T05:55:32;2.30;;;1.15;;
42864;SDS011;28511;42.680;23.252;2023-03-30T05:57:57;2.08;;;1.50;;
42864;SDS011;28511;42.680;23.252;2023-03-30T06:00:22;3.08;;;1.63;;
42864;SDS011;28511;42.680;23.252;2023-03-30T06:02:48;3.25;;;2.28;;
42864;SDS011;28511;42.680;23.252;2023-03-30T06:05:13;1.65;;;1.48;;
42864;SDS011;28511;42.680;23.252;2023-03-30T06:07:39;5.47;;;2.03;;
42864;SDS011;28511;42.680;23.252;2023-03-30T06:10:04;1.45;;;1.35;;
42864;SDS011;28511;42.680;23.252;2023-03-30T06:12:30;2.97;;;1.80;;
42864;SDS011;28511;42.680;23.252;2023-03-30T06:14:55;0.93;;;0.93;;
42864;SDS011;28511;42.680;23.252;2023-03-30T06:17:21;3.43;;;1.57;;
42864;SDS011;28511;42.680;23.252;2023-03-30T06:19:46;5.78;;;3.25;;
42864;SDS011;28511;42.680;23.252;2023-03-30T06:22:11;4.28;;;1.88;;
42864;SDS011;28511;42.680;23.252;2023-03-30T06:24:36;4.32;;;1.92;;
42864;SDS011;28511;42.680;23.252;2023-03-30T06:27:02;2.97;;;1.85;;
42864;SDS011;28511;42.680;23.252;2023-03-30T06:29:27;3.60;;;2.08;;
42864;SDS011;28511;42.680;23.252;2023-03-30T06:31:52;4.30;;;1.88;;
42864;SDS011;28511;42.680;23.252;2023-03-30T06:34:18;5.32;;;2.03;;
42864;SDS011;28511;42.680;23.252;2023-03-30T06:36:44;3.13;;;1.65;;
42864;SDS011;28511;42.680;23.252;2023-03-30T06:39:10;3.83;;;1.83;;
42864;SDS011;28511;42.680;23.252;2023-03-30T06:41:35;2.13;;;1.60;;
42864;SDS011;28511;42.680;23.252;2023-03-30T06:44:01;4.70;;;2.30;;
42864;SDS011;28511;42.680;23.252;2023-03-30T06:46:26;3.20;;;2.17;;
42864;SDS011;28511;42.680;23.252;2023-03-30T06:48:51;3.50;;;2.60;;
42864;SDS011;28511;42.680;23.252;2023-03-30T06:51:17;5.68;;;1.92;;
42864;SDS011;28511;42.680;23.252;2023-03-30T06:53:43;5.15;;;2.17;;
42864;SDS011;28511;42.680;23.252;2023-03-30T06:56:08;3.45;;;2.25;;
42864;SDS011;28511;42.680;23.252;2023-03-30T06:58:35;4.50;;;1.92;;
42864;SDS011;28511;42.680;23.252;2023-03-30T07:01:07;2.95;;;1.42;;
42864;SDS011;28511;42.680;23.252;2023-03-30T07:03:34;3.20;;;1.77;;
42864;SDS011;28511;42.680;23.252;2023-03-30T07:05:59;3.00;;;2.13;;
42864;SDS011;28511;42.680;23.252;2023-03-30T07:08:24;2.13;;;1.42;;
42864;SDS011;28511;42.680;23.252;2023-03-30T07:10:50;9.60;;;2.60;;
42864;SDS011;28511;42.680;23.252;2023-03-30T07:13:15;7.40;;;2.72;;
42864;SDS011;28511;42.680;23.252;2023-03-30T07:15:41;3.17;;;2.35;;
42864;SDS011;28511;42.680;23.252;2023-03-30T07:18:06;4.03;;;1.75;;
42864;SDS011;28511;42.680;23.252;2023-03-30T07:20:32;2.97;;;2.22;;
42864;SDS011;28511;42.680;23.252;2023-03-30T07:22:57;4.20;;;2.58;;
42864;SDS011;28511;42.680;23.252;2023-03-30T07:25:22;4.40;;;2.65;;
42864;SDS011;28511;42.680;23.252;2023-03-30T07:27:47;5.33;;;3.00;;
42864;SDS011;28511;42.680;23.252;2023-03-30T07:30:13;4.85;;;2.63;;
42864;SDS011;28511;42.680;23.252;2023-03-30T07:32:39;8.52;;;2.50;;
42864;SDS011;28511;42.680;23.252;2023-03-30T07:35:04;5.10;;;2.13;;
42864;SDS011;28511;42.680;23.252;2023-03-30T07:37:30;6.88;;;2.80;;
42864;SDS011;28511;42.680;23.252;2023-03-30T07:39:56;6.43;;;2.78;;
42864;SDS011;28511;42.680;23.252;2023-03-30T07:42:21;5.13;;;2.38;;
42864;SDS011;28511;42.680;23.252;2023-03-30T07:44:46;3.78;;;2.08;;
42864;SDS011;28511;42.680;23.252;2023-03-30T07:47:12;5.77;;;2.73;;
42864;SDS011;28511;42.680;23.252;2023-03-30T07:49:37;5.75;;;2.58;;
42864;SDS011;28511;42.680;23.252;2023-03-30T07:52:02;10.45;;;3.20;;
42864;SDS011;28511;42.680;23.252;2023-03-30T07:54:27;9.27;;;2.90;;
42864;SDS011;28511;42.680;23.252;2023-03-30T07:56:53;9.32;;;3.78;;
42864;SDS011;28511;42.680;23.252;2023-03-30T07:59:18;8.35;;;3.22;;
42864;SDS011;28511;42.680;23.252;2023-03-30T08:01:44;6.63;;;2.95;;
42864;SDS011;28511;42.680;23.252;2023-03-30T08:04:10;12.40;;;4.07;;
42864;SDS011;28511;42.680;23.252;2023-03-30T08:06:36;7.65;;;3.25;;
42864;SDS011;28511;42.680;23.252;2023-03-30T08:09:01;6.60;;;3.65;;
42864;SDS011;28511;42.680;23.252;2023-03-30T08:11:28;7.28;;;4.00;;
42864;SDS011;28511;42.680;23.252;2023-03-30T08:13:53;5.45;;;3.47;;
42864;SDS011;28511;42.680;23.252;2023-03-30T08:16:18;10.32;;;5.68;;
42864;SDS011;28511;42.680;23.252;2023-03-30T08:18:44;7.85;;;3.17;;
42864;SDS011;28511;42.680;23.252;2023-03-30T08:21:11;8.55;;;3.97;;
42864;SDS011;28511;42.680;23.252;2023-03-30T08:23:36;13.00;;;3.13;;
42864;SDS011;28511;42.680;23.252;2023-03-30T08:26:02;3.42;;;2.33;;
42864;SDS011;28511;42.680;23.252;2023-03-30T08:28:27;11.68;;;2.85;;
42864;SDS011;28511;42.680;23.252;2023-03-30T08:30:52;8.43;;;4.25;;
42864;SDS011;28511;42.680;23.252;2023-03-30T08:33:18;5.05;;;2.97;;
42864;SDS011;28511;42.680;23.252;2023-03-30T08:35:44;8.93;;;3.92;;
42864;SDS011;28511;42.680;23.252;2023-03-30T08:38:10;5.43;;;2.55;;
42864;SDS011;28511;42.680;23.252;2023-03-30T08:40:39;5.80;;;3.28;;
42864;SDS011;28511;42.680;23.252;2023-03-30T08:45:39;3.33;;;1.60;;
42864;SDS011;28511;42.680;23.252;2023-03-30T08:54:08;3.20;;;1.15;;
42864;SDS011;28511;42.680;23.252;2023-03-30T08:56:38;3.10;;;1.40;;
42864;SDS011;28511;42.680;23.252;2023-03-30T09:04:16;5.15;;;0.90;;
42864;SDS011;28511;42.680;23.252;2023-03-30T09:06:51;2.13;;;1.27;;
42864;SDS011;28511;42.680;23.252;2023-03-30T09:09:18;3.00;;;0.70;;
42864;SDS011;28511;42.680;23.252;2023-03-30T09:11:45;2.42;;;1.25;;
42864;SDS011;28511;42.680;23.252;2023-03-30T09:14:14;1.13;;;1.00;;
42864;SDS011;28511;42.680;23.252;2023-03-30T09:16:52;2.03;;;0.98;;
42864;SDS011;28511;42.680;23.252;2023-03-30T09:19:44;1.33;;;1.10;;
42864;SDS011;28511;42.680;23.252;2023-03-30T09:22:05;1.80;;;1.25;;
42864;SDS011;28511;42.680;23.252;2023-03-30T09:24:31;4.15;;;1.40;;
42864;SDS011;28511;42.680;23.252;2023-03-30T09:26:57;1.33;;;0.80;;
42864;SDS011;28511;42.680;23.252;2023-03-30T09:29:27;3.92;;;1.15;;
42864;SDS011;28511;42.680;23.252;2023-03-30T09:34:28;1.25;;;1.10;;
42864;SDS011;28511;42.680;23.252;2023-03-30T09:39:27;4.00;;;1.58;;
42864;SDS011;28511;42.680;23.252;2023-03-30T09:44:32;1.75;;;1.00;;
42864;SDS011;28511;42.680;23.252;2023-03-30T09:46:59;3.05;;;1.23;;
42864;SDS011;28511;42.680;23.252;2023-03-30T09:49:26;2.25;;;1.00;;
42864;SDS011;28511;42.680;23.252;2023-03-30T09:52:03;12.95;;;2.25;;
42864;SDS011;28511;42.680;23.252;2023-03-30T09:54:35;1.33;;;1.23;;
42864;SDS011;28511;42.680;23.252;2023-03-30T09:57:01;2.65;;;1.80;;
42864;SDS011;28511;42.680;23.252;2023-03-30T09:59:28;1.23;;;1.10;;
42864;SDS011;28511;42.680;23.252;2023-03-30T10:07:36;0.88;;;0.82;;
42864;SDS011;28511;42.680;23.252;2023-03-30T10:12:39;6.93;;;2.60;;
42864;SDS011;28511;42.680;23.252;2023-03-30T10:15:13;2.42;;;1.40;;
42864;SDS011;28511;42.680;23.252;2023-03-30T10:17:39;5.05;;;1.75;;
42864;SDS011;28511;42.680;23.252;2023-03-30T10:23:00;1.95;;;1.15;;
42864;SDS011;28511;42.680;23.252;2023-03-30T10:25:28;4.20;;;1.23;;
42864;SDS011;28511;42.680;23.252;2023-03-30T10:27:56;3.83;;;1.10;;
42864;SDS011;28511;42.680;23.252;2023-03-30T10:30:25;1.38;;;1.05;;
42864;SDS011;28511;42.680;23.252;2023-03-30T10:32:52;2.17;;;0.80;;
42864;SDS011;28511;42.680;23.252;2023-03-30T10:35:26;4.72;;;1.80;;
42864;SDS011;28511;42.680;23.252;2023-03-30T10:37:54;2.17;;;1.10;;
42864;SDS011;28511;42.680;23.252;2023-03-30T10:40:42;1.05;;;0.80;;
42864;SDS011;28511;42.680;23.252;2023-03-30T10:43:13;1.33;;;1.23;;
42864;SDS011;28511;42.680;23.252;2023-03-30T10:45:40;1.73;;;1.42;;
42864;SDS011;28511;42.680;23.252;2023-03-30T10:48:18;1.48;;;0.70;;
42864;SDS011;28511;42.680;23.252;2023-03-30T10:58:58;1.75;;;0.77;;
42864;SDS011;28511;42.680;23.252;2023-03-30T11:01:09;2.45;;;1.10;;
42864;SDS011;28511;42.680;23.252;2023-03-30T11:03:35;1.00;;;0.95;;
42864;SDS011;28511;42.680;23.252;2023-03-30T11:06:06;2.60;;;1.52;;
42864;SDS011;28511;42.680;23.252;2023-03-30T11:08:36;4.03;;;1.63;;
42864;SDS011;28511;42.680;23.252;2023-03-30T11:11:03;2.70;;;0.88;;
42864;SDS011;28511;42.680;23.252;2023-03-30T11:13:36;0.70;;;0.70;;
42864;SDS011;28511;42.680;23.252;2023-03-30T11:16:13;1.95;;;1.20;;
42864;SDS011;28511;42.680;23.252;2023-03-30T11:18:41;1.83;;;0.93;;
42864;SDS011;28511;42.680;23.252;2023-03-30T11:26:09;3.80;;;1.90;;
42864;SDS011;28511;42.680;23.252;2023-03-30T11:28:42;4.10;;;1.52;;
42864;SDS011;28511;42.680;23.252;2023-03-30T11:31:17;3.10;;;1.30;;
42864;SDS011;28511;42.680;23.252;2023-03-30T11:33:46;3.97;;;1.38;;
42864;SDS011;28511;42.680;23.252;2023-03-30T11:36:17;6.72;;;1.88;;
42864;SDS011;28511;42.680;23.252;2023-03-30T11:38:44;6.60;;;1.25;;
42864;SDS011;28511;42.680;23.252;2023-03-30T11:41:15;2.33;;;1.17;;
42864;SDS011;28511;42.680;23.252;2023-03-30T11:43:41;1.75;;;1.05;;
42864;SDS011;28511;42.680;23.252;2023-03-30T11:51:34;1.52;;;1.02;;
42864;SDS011;28511;42.680;23.252;2023-03-30T11:57:00;1.02;;;0.75;;
42864;SDS011;28511;42.680;23.252;2023-03-30T11:59:41;2.33;;;0.70;;
42864;SDS011;28511;42.680;23.252;2023-03-30T12:07:01;4.20;;;1.58;;
42864;SDS011;28511;42.680;23.252;2023-03-30T12:09:31;1.15;;;0.73;;
42864;SDS011;28511;42.680;23.252;2023-03-30T12:12:02;2.70;;;1.20;;
42864;SDS011;28511;42.680;23.252;2023-03-30T12:17:24;1.23;;;1.10;;
42864;SDS011;28511;42.680;23.252;2023-03-30T12:19:53;2.08;;;1.35;;
42864;SDS011;28511;42.680;23.252;2023-03-30T12:30:25;2.17;;;1.15;;
42864;SDS011;28511;42.680;23.252;2023-03-30T12:32:58;1.15;;;0.85;;
42864;SDS011;28511;42.680;23.252;2023-03-30T12:38:07;1.17;;;1.08;;
42864;SDS011;28511;42.680;23.252;2023-03-30T12:40:33;1.35;;;1.00;;
42864;SDS011;28511;42.680;23.252;2023-03-30T12:45:33;1.35;;;1.25;;
42864;SDS011;28511;42.680;23.252;2023-03-30T12:53:12;2.47;;;1.63;;
42864;SDS011;28511;42.680;23.252;2023-03-30T12:55:44;1.80;;;1.23;;
42864;SDS011;28511;42.680;23.252;2023-03-30T13:03:19;11.73;;;1.50;;
42864;SDS011;28511;42.680;23.252;2023-03-30T13:05:49;2.15;;;0.82;;
42864;SDS011;28511;42.680;23.252;2023-03-30T13:08:28;2.67;;;1.13;;
42864;SDS011;28511;42.680;23.252;2023-03-30T13:11:04;1.30;;;1.15;;
42864;SDS011;28511;42.680;23.252;2023-03-30T13:19:08;3.22;;;0.77;;
42864;SDS011;28511;42.680;23.252;2023-03-30T13:21:47;8.75;;;2.00;;
42864;SDS011;28511;42.680;23.252;2023-03-30T13:24:31;1.45;;;1.15;;
42864;SDS011;28511;42.680;23.252;2023-03-30T13:27:10;1.85;;;0.80;;
42864;SDS011;28511;42.680;23.252;2023-03-30T13:29:55;1.55;;;1.25;;
42864;SDS011;28511;42.680;23.252;2023-03-30T13:37:45;2.10;;;0.63;;
42864;SDS011;28511;42.680;23.252;2023-03-30T13:45:18;6.43;;;1.10;;
42864;SDS011;28511;42.680;23.252;2023-03-30T13:48:01;9.07;;;1.45;;
42864;SDS011;28511;42.680;23.252;2023-03-30T13:50:28;4.00;;;1.75;;
42864;SDS011;28511;42.680;23.252;2023-03-30T13:52:56;4.47;;;1.10;;
42864;SDS011;28511;42.680;23.252;2023-03-30T13:57:53;2.63;;;1.17;;
42864;SDS011;28511;42.680;23.252;2023-03-30T14:00:24;2.22;;;1.33;;
42864;SDS011;28511;42.680;23.252;2023-03-30T14:02:52;4.57;;;1.55;;
42864;SDS011;28511;42.680;23.252;2023-03-30T14:07:44;1.73;;;0.95;;
42864;SDS011;28511;42.680;23.252;2023-03-30T14:12:36;4.15;;;1.23;;
42864;SDS011;28511;42.680;23.252;2023-03-30T14:15:02;2.97;;;1.23;;
42864;SDS011;28511;42.680;23.252;2023-03-30T14:17:38;1.77;;;1.20;;
42864;SDS011;28511;42.680;23.252;2023-03-30T14:22:30;1.73;;;1.10;;
42864;SDS011;28511;42.680;23.252;2023-03-30T14:24:57;1.52;;;1.05;;
42864;SDS011;28511;42.680;23.252;2023-03-30T14:27:22;1.50;;;0.90;;
42864;SDS011;28511;42.680;23.252;2023-03-30T14:29:48;1.70;;;1.00;;
42864;SDS011;28511;42.680;23.252;2023-03-30T14:32:15;2.05;;;0.70;;
42864;SDS011;28511;42.680;23.252;2023-03-30T14:34:47;2.83;;;0.85;;
42864;SDS011;28511;42.680;23.252;2023-03-30T14:37:13;1.48;;;0.85;;
42864;SDS011;28511;42.680;23.252;2023-03-30T14:39:39;6.50;;;2.58;;
42864;SDS011;28511;42.680;23.252;2023-03-30T14:42:11;2.80;;;0.80;;
42864;SDS011;28511;42.680;23.252;2023-03-30T14:44:38;1.10;;;1.00;;
42864;SDS011;28511;42.680;23.252;2023-03-30T14:47:04;0.60;;;0.60;;
42864;SDS011;28511;42.680;23.252;2023-03-30T14:49:30;3.30;;;1.23;;
42864;SDS011;28511;42.680;23.252;2023-03-30T14:52:15;0.88;;;0.60;;
42864;SDS011;28511;42.680;23.252;2023-03-30T14:54:41;0.73;;;0.65;;
42864;SDS011;28511;42.680;23.252;2023-03-30T14:57:07;1.00;;;0.88;;
42864;SDS011;28511;42.680;23.252;2023-03-30T14:59:37;3.03;;;1.00;;
42864;SDS011;28511;42.680;23.252;2023-03-30T15:02:08;1.58;;;0.70;;
42864;SDS011;28511;42.680;23.252;2023-03-30T15:04:35;1.90;;;1.17;;
42864;SDS011;28511;42.680;23.252;2023-03-30T15:07:02;1.95;;;0.90;;
42864;SDS011;28511;42.680;23.252;2023-03-30T15:09:27;0.77;;;0.68;;
42864;SDS011;28511;42.680;23.252;2023-03-30T15:12:01;1.17;;;0.85;;
42864;SDS011;28511;42.680;23.252;2023-03-30T15:14:29;1.30;;;1.00;;
42864;SDS011;28511;42.680;23.252;2023-03-30T15:16:56;4.38;;;1.05;;
42864;SDS011;28511;42.680;23.252;2023-03-30T15:19:31;2.08;;;0.70;;
42864;SDS011;28511;42.680;23.252;2023-03-30T15:22:00;2.83;;;1.13;;
42864;SDS011;28511;42.680;23.252;2023-03-30T15:24:29;8.68;;;1.45;;
42864;SDS011;28511;42.680;23.252;2023-03-30T15:26:56;1.30;;;0.80;;
42864;SDS011;28511;42.680;23.252;2023-03-30T15:29:22;2.65;;;1.40;;
42864;SDS011;28511;42.680;23.252;2023-03-30T15:31:59;1.25;;;0.80;;
42864;SDS011;28511;42.680;23.252;2023-03-30T15:34:24;2.50;;;0.82;;
42864;SDS011;28511;42.680;23.252;2023-03-30T15:36:53;1.55;;;1.00;;
42864;SDS011;28511;42.680;23.252;2023-03-30T15:39:24;3.50;;;1.60;;
42864;SDS011;28511;42.680;23.252;2023-03-30T15:44:22;0.70;;;0.70;;
42864;SDS011;28511;42.680;23.252;2023-03-30T15:46:47;1.45;;;1.02;;
42864;SDS011;28511;42.680;23.252;2023-03-30T15:49:14;2.30;;;0.90;;
42864;SDS011;28511;42.680;23.252;2023-03-30T15:51:44;2.17;;;0.93;;
42864;SDS011;28511;42.680;23.252;2023-03-30T15:54:14;0.88;;;0.70;;
42864;SDS011;28511;42.680;23.252;2023-03-30T15:59:21;1.95;;;0.65;;
42864;SDS011;28511;42.680;23.252;2023-03-30T16:01:50;4.80;;;1.05;;
42864;SDS011;28511;42.680;23.252;2023-03-30T16:04:16;1.48;;;0.70;;
42864;SDS011;28511;42.680;23.252;2023-03-30T16:06:42;2.70;;;1.52;;
42864;SDS011;28511;42.680;23.252;2023-03-30T16:09:07;4.20;;;1.50;;
42864;SDS011;28511;42.680;23.252;2023-03-30T16:11:33;3.60;;;1.60;;
42864;SDS011;28511;42.680;23.252;2023-03-30T16:13:58;7.47;;;2.60;;
42864;SDS011;28511;42.680;23.252;2023-03-30T16:16:24;26.83;;;3.42;;
42864;SDS011;28511;42.680;23.252;2023-03-30T16:18:49;5.13;;;2.35;;
42864;SDS011;28511;42.680;23.252;2023-03-30T16:21:15;4.03;;;2.05;;
42864;SDS011;28511;42.680;23.252;2023-03-30T16:23:41;3.45;;;2.40;;
42864;SDS011;28511;42.680;23.252;2023-03-30T16:26:06;5.63;;;2.88;;
42864;SDS011;28511;42.680;23.252;2023-03-30T16:28:35;8.50;;;1.80;;
42864;SDS011;28511;42.680;23.252;2023-03-30T16:31:02;6.35;;;2.28;;
42864;SDS011;28511;42.680;23.252;2023-03-30T16:33:28;7.15;;;3.50;;
42864;SDS011;28511;42.680;23.252;2023-03-30T16:35:53;9.97;;;4.40;;
42864;SDS011;28511;42.680;23.252;2023-03-30T16:38:19;7.60;;;3.45;;
42864;SDS011;28511;42.680;23.252;2023-03-30T16:40:51;7.45;;;2.78;;
42864;SDS011;28511;42.680;23.252;2023-03-30T16:43:18;3.78;;;2.00;;
42864;SDS011;28511;42.680;23.252;2023-03-30T16:45:43;3.55;;;2.15;;
42864;SDS011;28511;42.680;23.252;2023-03-30T16:48:10;7.75;;;2.75;;
42864;SDS011;28511;42.680;23.252;2023-03-30T16:50:54;2.95;;;1.55;;
42864;SDS011;28511;42.680;23.252;2023-03-30T16:53:21;1.77;;;1.65;;
42864;SDS011;28511;42.680;23.252;2023-03-30T16:55:47;3.40;;;1.50;;
42864;SDS011;28511;42.680;23.252;2023-03-30T16:58:13;2.25;;;1.35;;
42864;SDS011;28511;42.680;23.252;2023-03-30T17:00:40;4.03;;;1.25;;
42864;SDS011;28511;42.680;23.252;2023-03-30T17:03:06;3.70;;;1.55;;
42864;SDS011;28511;42.680;23.252;2023-03-30T17:05:31;10.25;;;2.58;;
42864;SDS011;28511;42.680;23.252;2023-03-30T17:08:01;5.57;;;2.15;;
42864;SDS011;28511;42.680;23.252;2023-03-30T17:10:29;3.92;;;2.40;;
42864;SDS011;28511;42.680;23.252;2023-03-30T17:12:55;7.00;;;2.45;;
42864;SDS011;28511;42.680;23.252;2023-03-30T17:15:21;5.05;;;2.45;;
42864;SDS011;28511;42.680;23.252;2023-03-30T17:17:46;3.25;;;2.10;;
42864;SDS011;28511;42.680;23.252;2023-03-30T17:22:40;8.40;;;2.47;;
42864;SDS011;28511;42.680;23.252;2023-03-30T17:25:05;3.55;;;1.63;;
42864;SDS011;28511;42.680;23.252;2023-03-30T17:27:31;2.00;;;1.17;;
42864;SDS011;28511;42.680;23.252;2023-03-30T17:29:56;2.78;;;1.05;;